sensor_id;sensor_type;location;lat;lon;timestamp;P1;durP1;ratioP1;P2;durP2;ratioP2
1410;SDS011;700;51.906;8.404;2022-10-31T00:04:13;12.07;;;8.63;;
1410;SDS011;700;51.906;8.404;2022-10-31T00:09:13;13.63;;;9.40;;
1410;SDS011;700;51.906;8.404;2022-10-31T00:14:16;11.20;;;7.93;;
1410;SDS011;700;51.906;8.404;2022-10-31T00:19:17;14.03;;;8.10;;
1410;SDS011;700;51.906;8.404;2022-10-31T00:24:17;11.43;;;8.13;;
1410;SDS011;700;51.906;8.404;2022-10-31T00:29:18;11.23;;;7.97;;
1410;SDS011;700;51.906;8.404;2022-10-31T00:34:21;11.30;;;8.10;;
1410;SDS011;700;51.906;8.404;2022-10-31T00:39:21;15.70;;;8.30;;
1410;SDS011;700;51.906;8.404;2022-10-31T00:44:22;13.93;;;9.10;;
1410;SDS011;700;51.906;8.404;2022-10-31T00:49:22;10.27;;;8.50;;
1410;SDS011;700;51.906;8.404;2022-10-31T00:54:23;10.10;;;8.50;;
1410;SDS011;700;51.906;8.404;2022-10-31T00:59:26;9.60;;;8.10;;
1410;SDS011;700;51.906;8.404;2022-10-31T01:04:27;11.87;;;7.57;;
1410;SDS011;700;51.906;8.404;2022-10-31T01:09:27;12.00;;;8.80;;
1410;SDS011;700;51.906;8.404;2022-10-31T01:14:28;13.67;;;9.47;;
1410;SDS011;700;51.906;8.404;2022-10-31T01:19:29;12.70;;;8.10;;
1410;SDS011;700;51.906;8.404;2022-10-31T01:24:29;10.03;;;8.10;;
1410;SDS011;700;51.906;8.404;2022-10-31T01:29:30;10.50;;;8.30;;
1410;SDS011;700;51.906;8.404;2022-10-31T01:34:30;12.30;;;8.40;;
1410;SDS011;700;51.906;8.404;2022-10-31T01:39:31;12.17;;;9.20;;
1410;SDS011;700;51.906;8.404;2022-10-31T01:49:36;12.17;;;9.23;;
1410;SDS011;700;51.906;8.404;2022-10-31T01:54:48;13.43;;;9.60;;
1410;SDS011;700;51.906;8.404;2022-10-31T01:59:54;11.60;;;9.10;;
1410;SDS011;700;51.906;8.404;2022-10-31T02:04:59;11.27;;;9.47;;
1410;SDS011;700;51.906;8.404;2022-10-31T02:10:02;13.03;;;9.63;;
1410;SDS011;700;51.906;8.404;2022-10-31T02:15:05;13.97;;;10.67;;
1410;SDS011;700;51.906;8.404;2022-10-31T02:20:18;13.93;;;9.40;;
1410;SDS011;700;51.906;8.404;2022-10-31T02:30:36;9.60;;;8.50;;
1410;SDS011;700;51.906;8.404;2022-10-31T02:41:04;17.40;;;9.70;;
1410;SDS011;700;51.906;8.404;2022-10-31T02:46:21;11.37;;;9.57;;
1410;SDS011;700;51.906;8.404;2022-10-31T02:51:23;15.87;;;9.40;;
1410;SDS011;700;51.906;8.404;2022-10-31T02:56:24;10.50;;;8.50;;
1410;SDS011;700;51.906;8.404;2022-10-31T03:12:04;13.87;;;10.33;;
1410;SDS011;700;51.906;8.404;2022-10-31T03:17:14;10.40;;;9.30;;
1410;SDS011;700;51.906;8.404;2022-10-31T03:22:34;18.80;;;9.80;;
1410;SDS011;700;51.906;8.404;2022-10-31T03:27:42;19.53;;;9.53;;
1410;SDS011;700;51.906;8.404;2022-10-31T03:32:45;11.33;;;9.40;;
1410;SDS011;700;51.906;8.404;2022-10-31T03:37:51;11.80;;;9.20;;
1410;SDS011;700;51.906;8.404;2022-10-31T03:42:56;17.37;;;10.53;;
1410;SDS011;700;51.906;8.404;2022-10-31T03:48:00;13.77;;;11.23;;
1410;SDS011;700;51.906;8.404;2022-10-31T03:53:04;11.50;;;9.10;;
1410;SDS011;700;51.906;8.404;2022-10-31T03:58:10;10.60;;;9.03;;
1410;SDS011;700;51.906;8.404;2022-10-31T04:03:19;11.10;;;9.17;;
1410;SDS011;700;51.906;8.404;2022-10-31T04:08:30;14.27;;;9.60;;
1410;SDS011;700;51.906;8.404;2022-10-31T04:13:34;12.37;;;9.67;;
1410;SDS011;700;51.906;8.404;2022-10-31T04:18:39;12.60;;;8.50;;
1410;SDS011;700;51.906;8.404;2022-10-31T04:23:41;15.07;;;9.67;;
1410;SDS011;700;51.906;8.404;2022-10-31T04:28:42;10.80;;;8.60;;
1410;SDS011;700;51.906;8.404;2022-10-31T04:33:43;13.93;;;9.47;;
1410;SDS011;700;51.906;8.404;2022-10-31T04:38:48;13.70;;;9.77;;
1410;SDS011;700;51.906;8.404;2022-10-31T04:43:49;14.97;;;9.90;;
1410;SDS011;700;51.906;8.404;2022-10-31T04:48:49;11.23;;;10.07;;
1410;SDS011;700;51.906;8.404;2022-10-31T04:53:50;15.73;;;9.03;;
1410;SDS011;700;51.906;8.404;2022-10-31T04:58:50;13.07;;;9.00;;
1410;SDS011;700;51.906;8.404;2022-10-31T05:03:51;13.60;;;9.63;;
1410;SDS011;700;51.906;8.404;2022-10-31T05:08:54;20.23;;;12.23;;
1410;SDS011;700;51.906;8.404;2022-10-31T05:13:54;15.67;;;10.67;;
1410;SDS011;700;51.906;8.404;2022-10-31T05:18:57;13.00;;;9.90;;
1410;SDS011;700;51.906;8.404;2022-10-31T05:23:58;15.40;;;9.77;;
1410;SDS011;700;51.906;8.404;2022-10-31T05:29:01;13.20;;;9.93;;
1410;SDS011;700;51.906;8.404;2022-10-31T05:34:04;16.40;;;10.47;;
1410;SDS011;700;51.906;8.404;2022-10-31T05:39:05;10.80;;;9.33;;
1410;SDS011;700;51.906;8.404;2022-10-31T05:44:05;13.33;;;9.40;;
1410;SDS011;700;51.906;8.404;2022-10-31T05:49:06;15.23;;;10.73;;
1410;SDS011;700;51.906;8.404;2022-10-31T05:54:06;13.77;;;10.27;;
1410;SDS011;700;51.906;8.404;2022-10-31T05:59:07;17.40;;;10.80;;
1410;SDS011;700;51.906;8.404;2022-10-31T06:04:07;16.77;;;10.67;;
1410;SDS011;700;51.906;8.404;2022-10-31T06:09:10;14.93;;;10.97;;
1410;SDS011;700;51.906;8.404;2022-10-31T06:14:16;20.97;;;11.00;;
1410;SDS011;700;51.906;8.404;2022-10-31T06:19:19;13.03;;;11.13;;
1410;SDS011;700;51.906;8.404;2022-10-31T06:24:20;19.33;;;10.87;;
1410;SDS011;700;51.906;8.404;2022-10-31T06:29:20;16.80;;;10.20;;
1410;SDS011;700;51.906;8.404;2022-10-31T06:34:21;12.20;;;10.07;;
1410;SDS011;700;51.906;8.404;2022-10-31T06:39:21;18.23;;;11.30;;
1410;SDS011;700;51.906;8.404;2022-10-31T06:44:25;17.67;;;10.47;;
1410;SDS011;700;51.906;8.404;2022-10-31T06:49:28;14.00;;;9.90;;
1410;SDS011;700;51.906;8.404;2022-10-31T06:54:28;15.77;;;10.80;;
1410;SDS011;700;51.906;8.404;2022-10-31T06:59:29;13.20;;;10.30;;
1410;SDS011;700;51.906;8.404;2022-10-31T07:04:29;15.30;;;11.40;;
1410;SDS011;700;51.906;8.404;2022-10-31T07:09:30;13.77;;;11.23;;
1410;SDS011;700;51.906;8.404;2022-10-31T07:14:31;16.80;;;13.83;;
1410;SDS011;700;51.906;8.404;2022-10-31T07:19:31;14.40;;;11.37;;
1410;SDS011;700;51.906;8.404;2022-10-31T07:24:32;21.50;;;11.50;;
1410;SDS011;700;51.906;8.404;2022-10-31T07:29:32;13.47;;;10.47;;
1410;SDS011;700;51.906;8.404;2022-10-31T07:34:33;16.63;;;11.93;;
1410;SDS011;700;51.906;8.404;2022-10-31T07:39:34;15.40;;;11.87;;
1410;SDS011;700;51.906;8.404;2022-10-31T07:44:37;15.40;;;12.03;;
1410;SDS011;700;51.906;8.404;2022-10-31T07:49:40;17.50;;;12.07;;
1410;SDS011;700;51.906;8.404;2022-10-31T07:54:40;19.03;;;11.93;;
1410;SDS011;700;51.906;8.404;2022-10-31T07:59:43;20.77;;;12.67;;
1410;SDS011;700;51.906;8.404;2022-10-31T08:04:44;14.57;;;11.73;;
1410;SDS011;700;51.906;8.404;2022-10-31T08:09:45;16.37;;;12.67;;
1410;SDS011;700;51.906;8.404;2022-10-31T08:14:47;15.13;;;11.53;;
1410;SDS011;700;51.906;8.404;2022-10-31T08:19:48;15.47;;;12.40;;
1410;SDS011;700;51.906;8.404;2022-10-31T08:24:50;16.13;;;12.60;;
1410;SDS011;700;51.906;8.404;2022-10-31T08:29:51;19.00;;;13.30;;
1410;SDS011;700;51.906;8.404;2022-10-31T08:34:54;16.97;;;13.37;;
1410;SDS011;700;51.906;8.404;2022-10-31T08:39:57;14.63;;;11.93;;
1410;SDS011;700;51.906;8.404;2022-10-31T08:44:59;19.33;;;14.37;;
1410;SDS011;700;51.906;8.404;2022-10-31T08:50:00;20.23;;;12.87;;
1410;SDS011;700;51.906;8.404;2022-10-31T08:55:03;24.87;;;14.70;;
1410;SDS011;700;51.906;8.404;2022-10-31T09:00:04;19.77;;;14.50;;
1410;SDS011;700;51.906;8.404;2022-10-31T09:05:05;16.73;;;13.63;;
1410;SDS011;700;51.906;8.404;2022-10-31T09:10:06;19.80;;;15.60;;
1410;SDS011;700;51.906;8.404;2022-10-31T09:15:10;22.43;;;15.80;;
1410;SDS011;700;51.906;8.404;2022-10-31T09:20:11;20.63;;;15.63;;
1410;SDS011;700;51.906;8.404;2022-10-31T09:25:13;21.03;;;16.93;;
1410;SDS011;700;51.906;8.404;2022-10-31T09:30:14;25.50;;;16.70;;
1410;SDS011;700;51.906;8.404;2022-10-31T09:35:14;20.40;;;17.77;;
1410;SDS011;700;51.906;8.404;2022-10-31T09:40:17;24.20;;;17.80;;
1410;SDS011;700;51.906;8.404;2022-10-31T09:50:44;27.10;;;19.50;;
1410;SDS011;700;51.906;8.404;2022-10-31T09:55:48;25.30;;;19.30;;
1410;SDS011;700;51.906;8.404;2022-10-31T10:00:51;28.40;;;19.97;;
1410;SDS011;700;51.906;8.404;2022-10-31T10:05:57;24.33;;;20.03;;
1410;SDS011;700;51.906;8.404;2022-10-31T10:22:16;27.90;;;21.07;;
1410;SDS011;700;51.906;8.404;2022-10-31T10:32:51;30.60;;;20.80;;
1410;SDS011;700;51.906;8.404;2022-10-31T10:43:37;26.17;;;19.87;;
1410;SDS011;700;51.906;8.404;2022-10-31T10:48:46;23.23;;;17.03;;
1410;SDS011;700;51.906;8.404;2022-10-31T10:59:15;20.00;;;16.10;;
1410;SDS011;700;51.906;8.404;2022-10-31T11:04:38;23.43;;;16.30;;
1410;SDS011;700;51.906;8.404;2022-10-31T11:09:42;20.90;;;16.27;;
1410;SDS011;700;51.906;8.404;2022-10-31T11:14:45;22.67;;;16.90;;
1410;SDS011;700;51.906;8.404;2022-10-31T11:19:48;19.37;;;17.13;;
1410;SDS011;700;51.906;8.404;2022-10-31T11:25:11;20.30;;;18.10;;
1410;SDS011;700;51.906;8.404;2022-10-31T11:30:47;23.77;;;20.07;;
1410;SDS011;700;51.906;8.404;2022-10-31T11:35:50;27.77;;;19.83;;
1410;SDS011;700;51.906;8.404;2022-10-31T11:41:08;25.70;;;20.77;;
1410;SDS011;700;51.906;8.404;2022-10-31T11:51:35;24.20;;;19.60;;
1410;SDS011;700;51.906;8.404;2022-10-31T11:56:37;28.57;;;19.23;;
1410;SDS011;700;51.906;8.404;2022-10-31T12:01:46;30.77;;;23.13;;
1410;SDS011;700;51.906;8.404;2022-10-31T12:06:50;26.90;;;19.40;;
1410;SDS011;700;51.906;8.404;2022-10-31T12:38:48;23.50;;;17.80;;
1410;SDS011;700;51.906;8.404;2022-10-31T12:44:08;23.03;;;17.47;;
1410;SDS011;700;51.906;8.404;2022-10-31T13:05:13;19.43;;;15.70;;
1410;SDS011;700;51.906;8.404;2022-10-31T13:10:19;22.37;;;16.03;;
1410;SDS011;700;51.906;8.404;2022-10-31T13:15:50;15.00;;;12.10;;
1410;SDS011;700;51.906;8.404;2022-10-31T13:20:57;14.50;;;12.47;;
1410;SDS011;700;51.906;8.404;2022-10-31T13:26:03;14.10;;;10.23;;
1410;SDS011;700;51.906;8.404;2022-10-31T13:31:09;19.93;;;10.80;;
1410;SDS011;700;51.906;8.404;2022-10-31T13:46:48;10.60;;;9.10;;
1410;SDS011;700;51.906;8.404;2022-10-31T13:51:49;13.87;;;8.80;;
1410;SDS011;700;51.906;8.404;2022-10-31T13:56:54;15.30;;;8.10;;
1410;SDS011;700;51.906;8.404;2022-10-31T14:02:01;10.30;;;7.20;;
1410;SDS011;700;51.906;8.404;2022-10-31T14:07:16;13.53;;;8.30;;
1410;SDS011;700;51.906;8.404;2022-10-31T14:17:45;12.13;;;9.03;;
1410;SDS011;700;51.906;8.404;2022-10-31T14:22:46;10.57;;;8.80;;
1410;SDS011;700;51.906;8.404;2022-10-31T14:27:46;12.77;;;9.40;;
1410;SDS011;700;51.906;8.404;2022-10-31T14:33:29;10.53;;;8.97;;
1410;SDS011;700;51.906;8.404;2022-10-31T14:38:20;13.90;;;8.70;;
1410;SDS011;700;51.906;8.404;2022-10-31T14:43:51;14.37;;;10.10;;
1410;SDS011;700;51.906;8.404;2022-10-31T14:54:56;14.87;;;10.50;;
1410;SDS011;700;51.906;8.404;2022-10-31T15:00:00;17.50;;;11.50;;
1410;SDS011;700;51.906;8.404;2022-10-31T15:05:09;14.27;;;10.43;;
1410;SDS011;700;51.906;8.404;2022-10-31T15:10:22;14.43;;;10.60;;
1410;SDS011;700;51.906;8.404;2022-10-31T15:15:29;13.73;;;9.83;;
1410;SDS011;700;51.906;8.404;2022-10-31T15:20:36;19.37;;;11.07;;
1410;SDS011;700;51.906;8.404;2022-10-31T15:25:42;19.50;;;12.03;;
1410;SDS011;700;51.906;8.404;2022-10-31T15:30:53;14.27;;;11.23;;
1410;SDS011;700;51.906;8.404;2022-10-31T15:35:59;16.37;;;11.40;;
1410;SDS011;700;51.906;8.404;2022-10-31T15:41:02;14.87;;;11.37;;
1410;SDS011;700;51.906;8.404;2022-10-31T15:46:08;24.87;;;13.23;;
1410;SDS011;700;51.906;8.404;2022-10-31T15:51:10;18.20;;;12.07;;
1410;SDS011;700;51.906;8.404;2022-10-31T15:56:18;20.07;;;12.43;;
1410;SDS011;700;51.906;8.404;2022-10-31T16:01:32;15.57;;;13.03;;
1410;SDS011;700;51.906;8.404;2022-10-31T16:06:36;18.50;;;12.50;;
1410;SDS011;700;51.906;8.404;2022-10-31T16:11:38;17.17;;;13.27;;
1410;SDS011;700;51.906;8.404;2022-10-31T16:16:43;18.70;;;13.07;;
1410;SDS011;700;51.906;8.404;2022-10-31T16:21:53;18.50;;;14.33;;
1410;SDS011;700;51.906;8.404;2022-10-31T16:27:06;17.13;;;12.93;;
1410;SDS011;700;51.906;8.404;2022-10-31T16:37:45;21.57;;;12.13;;
1410;SDS011;700;51.906;8.404;2022-10-31T16:42:46;16.00;;;12.40;;
1410;SDS011;700;51.906;8.404;2022-10-31T16:47:49;18.13;;;12.00;;
1410;SDS011;700;51.906;8.404;2022-10-31T16:52:52;16.27;;;13.20;;
1410;SDS011;700;51.906;8.404;2022-10-31T16:57:54;19.60;;;14.37;;
1410;SDS011;700;51.906;8.404;2022-10-31T17:02:58;21.03;;;11.93;;
1410;SDS011;700;51.906;8.404;2022-10-31T17:07:59;18.67;;;11.97;;
1410;SDS011;700;51.906;8.404;2022-10-31T17:13:02;16.80;;;11.23;;
1410;SDS011;700;51.906;8.404;2022-10-31T17:18:09;17.23;;;11.07;;
1410;SDS011;700;51.906;8.404;2022-10-31T17:23:14;21.90;;;12.27;;
1410;SDS011;700;51.906;8.404;2022-10-31T17:28:16;16.53;;;12.23;;
1410;SDS011;700;51.906;8.404;2022-10-31T17:33:17;14.83;;;12.07;;
1410;SDS011;700;51.906;8.404;2022-10-31T17:38:20;16.30;;;12.00;;
1410;SDS011;700;51.906;8.404;2022-10-31T17:43:21;16.60;;;12.60;;
1410;SDS011;700;51.906;8.404;2022-10-31T17:48:26;20.93;;;13.50;;
1410;SDS011;700;51.906;8.404;2022-10-31T17:53:30;20.30;;;13.23;;
1410;SDS011;700;51.906;8.404;2022-10-31T17:58:32;19.40;;;12.80;;
1410;SDS011;700;51.906;8.404;2022-10-31T18:03:34;15.13;;;12.33;;
1410;SDS011;700;51.906;8.404;2022-10-31T18:08:38;15.43;;;13.37;;
1410;SDS011;700;51.906;8.404;2022-10-31T18:13:41;26.17;;;19.10;;
1410;SDS011;700;51.906;8.404;2022-10-31T18:18:48;15.77;;;12.67;;
1410;SDS011;700;51.906;8.404;2022-10-31T18:23:55;21.20;;;13.90;;
1410;SDS011;700;51.906;8.404;2022-10-31T18:28:59;17.27;;;12.20;;
1410;SDS011;700;51.906;8.404;2022-10-31T18:34:02;19.43;;;14.10;;
1410;SDS011;700;51.906;8.404;2022-10-31T18:39:02;26.33;;;13.47;;
1410;SDS011;700;51.906;8.404;2022-10-31T18:44:04;15.43;;;13.20;;
1410;SDS011;700;51.906;8.404;2022-10-31T18:49:05;16.50;;;12.60;;
1410;SDS011;700;51.906;8.404;2022-10-31T18:54:07;21.40;;;13.77;;
1410;SDS011;700;51.906;8.404;2022-10-31T18:59:10;18.57;;;14.60;;
1410;SDS011;700;51.906;8.404;2022-10-31T19:04:11;18.07;;;13.30;;
1410;SDS011;700;51.906;8.404;2022-10-31T19:09:11;23.93;;;14.43;;
1410;SDS011;700;51.906;8.404;2022-10-31T19:14:14;21.03;;;15.23;;
1410;SDS011;700;51.906;8.404;2022-10-31T19:19:15;18.33;;;14.43;;
1410;SDS011;700;51.906;8.404;2022-10-31T19:24:16;21.33;;;15.33;;
1410;SDS011;700;51.906;8.404;2022-10-31T19:29:16;17.77;;;13.67;;
1410;SDS011;700;51.906;8.404;2022-10-31T19:34:17;18.20;;;12.93;;
1410;SDS011;700;51.906;8.404;2022-10-31T19:39:18;21.30;;;12.27;;
1410;SDS011;700;51.906;8.404;2022-10-31T19:44:18;16.27;;;13.20;;
1410;SDS011;700;51.906;8.404;2022-10-31T19:49:19;17.00;;;11.80;;
1410;SDS011;700;51.906;8.404;2022-10-31T19:54:22;21.63;;;13.50;;
1410;SDS011;700;51.906;8.404;2022-10-31T19:59:22;17.80;;;10.73;;
1410;SDS011;700;51.906;8.404;2022-10-31T20:04:24;19.87;;;13.33;;
1410;SDS011;700;51.906;8.404;2022-10-31T20:09:27;15.00;;;12.37;;
1410;SDS011;700;51.906;8.404;2022-10-31T20:14:27;13.10;;;10.67;;
1410;SDS011;700;51.906;8.404;2022-10-31T20:19:28;17.83;;;11.97;;
1410;SDS011;700;51.906;8.404;2022-10-31T20:24:30;12.93;;;10.00;;
1410;SDS011;700;51.906;8.404;2022-10-31T20:29:31;16.57;;;10.50;;
1410;SDS011;700;51.906;8.404;2022-10-31T20:34:32;14.93;;;11.40;;
1410;SDS011;700;51.906;8.404;2022-10-31T20:39:35;15.70;;;11.37;;
1410;SDS011;700;51.906;8.404;2022-10-31T20:44:41;18.43;;;12.63;;
1410;SDS011;700;51.906;8.404;2022-10-31T20:49:42;14.60;;;11.50;;
1410;SDS011;700;51.906;8.404;2022-10-31T20:54:42;17.77;;;11.73;;
1410;SDS011;700;51.906;8.404;2022-10-31T20:59:43;19.70;;;12.47;;
1410;SDS011;700;51.906;8.404;2022-10-31T21:04:44;16.90;;;12.10;;
1410;SDS011;700;51.906;8.404;2022-10-31T21:09:44;19.97;;;11.37;;
1410;SDS011;700;51.906;8.404;2022-10-31T21:14:45;15.30;;;11.63;;
1410;SDS011;700;51.906;8.404;2022-10-31T21:19:45;16.43;;;11.83;;
1410;SDS011;700;51.906;8.404;2022-10-31T21:24:46;20.50;;;12.00;;
1410;SDS011;700;51.906;8.404;2022-10-31T21:29:47;17.43;;;11.90;;
1410;SDS011;700;51.906;8.404;2022-10-31T21:34:47;15.57;;;11.27;;
1410;SDS011;700;51.906;8.404;2022-10-31T21:39:49;16.33;;;11.50;;
1410;SDS011;700;51.906;8.404;2022-10-31T21:44:50;19.13;;;11.57;;
1410;SDS011;700;51.906;8.404;2022-10-31T21:49:53;17.27;;;12.63;;
1410;SDS011;700;51.906;8.404;2022-10-31T21:54:56;14.43;;;11.50;;
1410;SDS011;700;51.906;8.404;2022-10-31T21:59:56;19.50;;;12.30;;
1410;SDS011;700;51.906;8.404;2022-10-31T22:04:57;22.10;;;12.50;;
1410;SDS011;700;51.906;8.404;2022-10-31T22:09:58;21.00;;;13.17;;
1410;SDS011;700;51.906;8.404;2022-10-31T22:14:58;20.20;;;12.30;;
1410;SDS011;700;51.906;8.404;2022-10-31T22:20:01;17.23;;;12.40;;
1410;SDS011;700;51.906;8.404;2022-10-31T22:25:02;20.13;;;11.90;;
1410;SDS011;700;51.906;8.404;2022-10-31T22:30:03;19.10;;;11.10;;
1410;SDS011;700;51.906;8.404;2022-10-31T22:35:07;16.30;;;11.37;;
1410;SDS011;700;51.906;8.404;2022-10-31T22:40:09;20.10;;;12.00;;
1410;SDS011;700;51.906;8.404;2022-10-31T22:45:10;13.13;;;10.73;;
1410;SDS011;700;51.906;8.404;2022-10-31T22:50:11;13.47;;;12.07;;
1410;SDS011;700;51.906;8.404;2022-10-31T22:55:14;17.93;;;11.70;;
1410;SDS011;700;51.906;8.404;2022-10-31T23:00:17;16.47;;;12.23;;
1410;SDS011;700;51.906;8.404;2022-10-31T23:05:17;25.10;;;12.40;;
1410;SDS011;700;51.906;8.404;2022-10-31T23:10:18;22.47;;;12.13;;
1410;SDS011;700;51.906;8.404;2022-10-31T23:15:21;17.83;;;11.50;;
1410;SDS011;700;51.906;8.404;2022-10-31T23:20:22;16.63;;;11.73;;
1410;SDS011;700;51.906;8.404;2022-10-31T23:25:24;16.53;;;11.17;;
1410;SDS011;700;51.906;8.404;2022-10-31T23:30:44;13.90;;;9.53;;
1410;SDS011;700;51.906;8.404;2022-10-31T23:35:47;14.50;;;10.10;;
1410;SDS011;700;51.906;8.404;2022-10-31T23:40:48;16.47;;;10.70;;
1410;SDS011;700;51.906;8.404;2022-10-31T23:45:48;16.40;;;10.57;;
1410;SDS011;700;51.906;8.404;2022-10-31T23:50:49;10.73;;;9.13;;
1410;SDS011;700;51.906;8.404;2022-10-31T23:55:53;15.10;;;9.40;;
